createdAt,value
2023-03-24T00:01:26.010Z,10.70
2023-03-24T00:03:54.685Z,10.80
2023-03-24T00:06:23.461Z,10.70
2023-03-24T00:08:53.430Z,10.70
2023-03-24T00:11:22.076Z,10.60
2023-03-24T00:13:51.058Z,10.60
2023-03-24T00:16:21.762Z,10.60
2023-03-24T00:18:53.266Z,10.60
2023-03-24T00:21:24.598Z,10.60
2023-03-24T00:23:54.441Z,10.60
2023-03-24T00:26:25.210Z,10.60
2023-03-24T00:28:54.880Z,10.70
2023-03-24T00:31:28.134Z,10.70
2023-03-24T00:34:02.220Z,10.70
2023-03-24T00:36:30.528Z,10.60
2023-03-24T00:38:59.070Z,10.60
2023-03-24T00:41:28.918Z,10.60
2023-03-24T00:43:58.811Z,10.60
2023-03-24T00:46:29.392Z,10.60
2023-03-24T00:49:03.456Z,10.60
2023-03-24T00:51:36.032Z,10.70
2023-03-24T00:54:05.147Z,10.70
2023-03-24T00:56:35.717Z,10.80
2023-03-24T00:59:04.993Z,10.70
2023-03-24T01:01:36.643Z,10.80
2023-03-24T01:04:06.500Z,10.80
2023-03-24T01:06:39.981Z,10.80
2023-03-24T01:09:08.903Z,10.80
2023-03-24T01:11:40.187Z,10.80
2023-03-24T01:14:09.553Z,10.80
2023-03-24T01:16:39.668Z,10.90
2023-03-24T01:19:09.561Z,10.90
2023-03-24T01:21:38.800Z,10.90
2023-03-24T01:24:07.693Z,10.90
2023-03-24T01:26:36.276Z,10.90
2023-03-24T01:29:04.593Z,10.90
2023-03-24T01:31:33.172Z,11.00
2023-03-24T01:34:03.017Z,10.90
2023-03-24T01:36:31.466Z,10.80
2023-03-24T01:39:01.309Z,10.80
2023-03-24T01:41:37.186Z,10.80
2023-03-24T01:44:27.243Z,10.80
2023-03-24T01:46:55.822Z,10.90
2023-03-24T01:49:27.106Z,10.90
2023-03-24T01:51:58.453Z,10.90
2023-03-24T01:54:31.305Z,10.90
2023-03-24T01:57:07.854Z,10.80
2023-03-24T01:59:42.260Z,10.80
2023-03-24T02:02:14.606Z,10.80
2023-03-24T02:04:54.179Z,10.80
2023-03-24T02:07:33.045Z,10.80
2023-03-24T02:10:03.684Z,10.80
2023-03-24T02:12:32.850Z,10.70
2023-03-24T02:15:04.392Z,10.80
2023-03-24T02:17:49.859Z,10.80
2023-03-24T02:21:00.119Z,10.80
2023-03-24T02:23:55.744Z,10.80
2023-03-24T02:26:47.213Z,10.80
2023-03-24T02:30:06.675Z,10.80
2023-03-24T02:33:06.711Z,10.90
2023-03-24T02:36:15.349Z,10.90
2023-03-24T02:39:09.832Z,10.60
2023-03-24T02:41:45.531Z,11.00
2023-03-24T02:44:21.722Z,11.00
2023-03-24T02:46:55.994Z,11.10
2023-03-24T02:49:30.132Z,11.10
2023-03-24T02:52:05.447Z,11.10
2023-03-24T02:54:43.088Z,11.10
2023-03-24T02:57:21.466Z,11.20
2023-03-24T03:00:13.787Z,11.10
2023-03-24T03:03:10.161Z,11.10
2023-03-24T03:05:45.572Z,11.10
2023-03-24T03:08:18.265Z,11.00
2023-03-24T03:10:48.861Z,11.00
2023-03-24T03:13:23.637Z,11.10
2023-03-24T03:15:55.329Z,11.00
2023-03-24T03:18:30.922Z,11.10
2023-03-24T03:21:04.418Z,11.20
2023-03-24T03:23:39.042Z,11.10
2023-03-24T03:26:12.370Z,11.10
2023-03-24T03:28:50.133Z,11.10
2023-03-24T03:31:24.849Z,11.10
2023-03-24T03:34:00.369Z,11.10
2023-03-24T03:36:31.698Z,11.00
2023-03-24T03:39:09.671Z,11.10
2023-03-24T03:41:42.012Z,11.10
2023-03-24T03:44:11.786Z,11.10
2023-03-24T03:46:40.937Z,11.10
2023-03-24T03:49:12.204Z,11.10
2023-03-24T03:51:43.256Z,11.00
2023-03-24T03:54:14.882Z,11.10
2023-03-24T03:56:43.845Z,11.00
2023-03-24T03:59:37.918Z,11.00
2023-03-24T04:02:26.981Z,11.00
2023-03-24T04:05:21.116Z,11.00
2023-03-24T04:08:16.822Z,11.00
2023-03-24T04:11:53.424Z,11.10
2023-03-24T04:15:01.162Z,11.10
2023-03-24T04:18:07.238Z,11.00
2023-03-24T04:21:02.256Z,11.00
2023-03-24T04:23:40.150Z,11.00
2023-03-24T04:26:26.273Z,11.10
2023-03-24T04:29:09.010Z,11.10
2023-03-24T04:31:43.409Z,11.20
2023-03-24T04:34:20.637Z,11.10
2023-03-24T04:36:54.535Z,11.10
2023-03-24T04:39:30.588Z,11.20
2023-03-24T04:42:05.284Z,11.20
2023-03-24T04:44:34.305Z,11.40
2023-03-24T04:47:32.026Z,11.20
2023-03-24T04:50:31.389Z,11.30
2023-03-24T04:53:01.966Z,11.30
2023-03-24T04:56:14.307Z,11.30
2023-03-24T04:59:13.026Z,11.30
2023-03-24T05:01:41.601Z,11.40
2023-03-24T05:04:43.220Z,11.40
2023-03-24T05:07:33.731Z,11.40
2023-03-24T05:10:07.957Z,11.50
2023-03-24T05:12:42.244Z,11.50
2023-03-24T05:15:19.595Z,11.50
2023-03-24T05:17:52.584Z,11.50
2023-03-24T05:20:26.201Z,11.60
2023-03-24T05:22:56.954Z,11.70
2023-03-24T05:25:26.713Z,11.60
2023-03-24T05:27:54.827Z,11.60
2023-03-24T05:30:26.744Z,11.70
2023-03-24T05:33:02.150Z,11.70
2023-03-24T05:35:31.722Z,11.80
2023-03-24T05:37:59.858Z,11.90
2023-03-24T05:40:28.702Z,11.90
2023-03-24T05:43:12.295Z,11.90
2023-03-24T05:45:45.132Z,11.90
2023-03-24T05:48:23.109Z,12.00
2023-03-24T05:51:10.007Z,12.00
2023-03-24T05:53:38.584Z,12.10
2023-03-24T05:56:19.356Z,12.00
2023-03-24T05:59:05.237Z,12.10
2023-03-24T06:01:53.366Z,12.00
2023-03-24T06:04:29.974Z,12.10
2023-03-24T06:07:05.531Z,12.10
2023-03-24T06:09:40.348Z,12.10
2023-03-24T06:12:10.967Z,12.10
2023-03-24T06:15:04.715Z,12.20
2023-03-24T06:17:34.007Z,12.20
2023-03-24T06:20:15.635Z,12.20
2023-03-24T06:22:47.393Z,12.20
2023-03-24T06:25:21.581Z,12.30
2023-03-24T06:28:04.369Z,12.20
2023-03-24T06:30:34.180Z,12.30
2023-03-24T06:33:03.036Z,12.30
2023-03-24T06:35:31.335Z,12.40
2023-03-24T06:38:14.354Z,12.40
2023-03-24T06:40:43.522Z,12.50
2023-03-24T06:43:11.885Z,12.50
2023-03-24T06:45:42.662Z,12.50
2023-03-24T06:48:15.948Z,12.50
2023-03-24T06:50:46.254Z,12.60
2023-03-24T06:53:21.688Z,12.60
2023-03-24T06:55:50.783Z,12.60
2023-03-24T06:58:21.393Z,12.70
2023-03-24T07:01:02.305Z,12.70
2023-03-24T07:03:35.755Z,12.90
2023-03-24T07:06:24.378Z,12.90
2023-03-24T07:08:57.400Z,13.00
2023-03-24T07:11:29.221Z,13.00
2023-03-24T07:14:02.816Z,13.10
2023-03-24T07:16:32.319Z,13.30
2023-03-24T07:19:29.876Z,13.40
2023-03-24T07:22:16.151Z,13.40
2023-03-24T07:25:09.722Z,13.50
2023-03-24T07:27:48.345Z,13.40
2023-03-24T07:30:24.250Z,13.50
2023-03-24T07:32:57.724Z,13.60
2023-03-24T07:35:25.930Z,13.60
2023-03-24T07:37:54.046Z,13.80
2023-03-24T07:40:23.796Z,14.10
2023-03-24T07:42:52.570Z,14.50
2023-03-24T07:45:36.303Z,14.80
2023-03-24T07:48:05.571Z,14.70
2023-03-24T07:50:37.415Z,14.30
2023-03-24T07:53:19.844Z,14.20
2023-03-24T07:55:49.778Z,14.10
2023-03-24T07:58:23.836Z,14.00
2023-03-24T08:01:15.456Z,14.00
2023-03-24T08:03:49.159Z,13.90
2023-03-24T08:06:17.534Z,13.80
2023-03-24T08:08:52.477Z,13.70
2023-03-24T08:11:22.291Z,13.70
2023-03-24T08:13:50.371Z,13.60
2023-03-24T08:16:18.630Z,13.50
2023-03-24T08:18:48.762Z,13.50
2023-03-24T08:21:17.015Z,13.50
2023-03-24T08:23:45.112Z,13.40
2023-03-24T08:26:13.406Z,13.40
2023-03-24T08:28:43.144Z,13.30
2023-03-24T08:31:11.730Z,13.40
2023-03-24T08:33:40.483Z,13.30
2023-03-24T08:36:09.200Z,13.20
2023-03-24T08:38:38.900Z,13.20
2023-03-24T08:41:08.561Z,13.20
2023-03-24T08:43:38.331Z,13.20
2023-03-24T08:46:13.265Z,13.30
2023-03-24T08:48:44.535Z,13.30
2023-03-24T08:51:14.679Z,13.30
2023-03-24T08:53:43.397Z,13.20
2023-03-24T08:56:11.939Z,13.10
2023-03-24T08:58:40.485Z,13.20
2023-03-24T09:01:13.144Z,13.30
2023-03-24T09:03:41.460Z,13.40
2023-03-24T09:06:10.237Z,13.40
2023-03-24T09:08:41.362Z,13.50
2023-03-24T09:11:16.832Z,13.50
2023-03-24T09:13:47.630Z,13.60
2023-03-24T09:16:18.893Z,13.60
2023-03-24T09:18:49.559Z,13.60
2023-03-24T09:21:18.018Z,13.60
2023-03-24T09:23:46.137Z,13.60
2023-03-24T09:26:16.729Z,13.60
2023-03-24T09:28:44.935Z,13.50
2023-03-24T09:31:13.486Z,13.60
2023-03-24T09:33:43.115Z,13.70
2023-03-24T09:36:11.965Z,13.70
2023-03-24T09:38:40.710Z,13.70
2023-03-24T09:41:18.466Z,13.80
2023-03-24T09:43:50.821Z,13.90
2023-03-24T09:46:29.659Z,14.00
2023-03-24T09:48:59.597Z,14.20
2023-03-24T09:51:29.298Z,14.50
2023-03-24T09:54:07.584Z,14.90
2023-03-24T09:56:39.390Z,14.90
2023-03-24T09:59:13.684Z,15.10
2023-03-24T10:01:41.852Z,15.00
2023-03-24T10:04:17.889Z,15.20
2023-03-24T10:06:48.382Z,15.30
2023-03-24T10:09:25.199Z,15.30
2023-03-24T10:12:05.058Z,15.20
2023-03-24T10:14:45.921Z,15.10
2023-03-24T10:17:22.224Z,15.30
2023-03-24T10:20:00.008Z,15.50
2023-03-24T10:22:37.305Z,15.50
2023-03-24T10:25:14.900Z,15.50
2023-03-24T10:27:47.888Z,15.50
2023-03-24T10:30:18.860Z,15.50
2023-03-24T10:32:47.691Z,15.30
2023-03-24T10:35:21.003Z,15.40
2023-03-24T10:37:50.526Z,15.30
2023-03-24T10:40:20.583Z,15.50
2023-03-24T10:43:07.250Z,15.80
2023-03-24T10:45:40.834Z,16.00
2023-03-24T10:48:09.370Z,16.10
2023-03-24T10:50:43.794Z,16.30
2023-03-24T10:53:19.592Z,16.60
2023-03-24T10:55:50.755Z,16.50
2023-03-24T10:58:26.586Z,16.30
2023-03-24T11:00:55.811Z,16.20
2023-03-24T11:03:29.008Z,16.00
2023-03-24T11:06:03.503Z,15.90
2023-03-24T11:08:36.188Z,16.00
2023-03-24T11:11:15.860Z,16.00
2023-03-24T11:13:55.685Z,16.00
2023-03-24T11:16:29.278Z,16.10
2023-03-24T11:19:01.069Z,16.10
2023-03-24T11:21:32.642Z,16.30
2023-03-24T11:24:02.709Z,16.40
2023-03-24T11:26:33.641Z,16.50
2023-03-24T11:29:04.689Z,16.60
2023-03-24T11:31:38.192Z,16.90
2023-03-24T11:34:10.844Z,16.90
2023-03-24T11:36:48.114Z,16.80
2023-03-24T11:39:20.069Z,16.80
2023-03-24T11:42:05.760Z,16.90
2023-03-24T11:44:47.056Z,16.70
2023-03-24T11:47:24.374Z,16.90
2023-03-24T11:50:01.594Z,17.00
2023-03-24T11:52:36.091Z,16.80
2023-03-24T11:55:06.064Z,16.90
2023-03-24T11:57:48.474Z,17.00
2023-03-24T12:00:23.023Z,16.90
2023-03-24T12:03:16.538Z,16.90
2023-03-24T12:05:52.021Z,16.80
2023-03-24T12:08:33.622Z,17.00
2023-03-24T12:11:19.517Z,17.10
2023-03-24T12:13:51.547Z,17.00
2023-03-24T12:16:41.289Z,17.10
2023-03-24T12:19:27.507Z,17.40
2023-03-24T12:22:05.963Z,17.30
2023-03-24T12:24:54.454Z,17.20
2023-03-24T12:27:29.285Z,17.20
2023-03-24T12:30:02.201Z,17.20
2023-03-24T12:32:43.133Z,17.10
2023-03-24T12:35:41.345Z,17.30
2023-03-24T12:38:37.293Z,17.20
2023-03-24T12:41:25.020Z,17.10
2023-03-24T12:44:17.283Z,17.20
2023-03-24T12:46:54.186Z,17.00
2023-03-24T12:49:40.093Z,16.70
2023-03-24T12:52:21.843Z,16.70
2023-03-24T12:55:04.073Z,16.50
2023-03-24T12:57:38.342Z,16.50
2023-03-24T13:00:12.599Z,16.50
2023-03-24T13:02:46.613Z,16.50
2023-03-24T13:05:21.157Z,16.30
2023-03-24T13:07:54.726Z,16.10
2023-03-24T13:10:26.618Z,16.10
2023-03-24T13:13:02.998Z,16.00
2023-03-24T13:15:35.531Z,15.90
2023-03-24T13:18:19.182Z,15.90
2023-03-24T13:20:52.488Z,15.60
2023-03-24T13:23:33.769Z,15.50
2023-03-24T13:26:16.167Z,15.10
2023-03-24T13:28:56.412Z,14.90
2023-03-24T13:31:26.971Z,14.60
2023-03-24T13:33:57.441Z,14.40
2023-03-24T13:36:40.191Z,13.90
2023-03-24T13:39:14.959Z,13.80
2023-03-24T13:41:51.047Z,13.80
2023-03-24T13:44:23.264Z,13.60
2023-03-24T13:47:12.793Z,13.60
2023-03-24T13:49:47.648Z,13.70
2023-03-24T13:52:27.782Z,13.70
2023-03-24T13:54:59.310Z,13.80
2023-03-24T13:57:27.949Z,13.80
2023-03-24T14:00:11.812Z,13.90
2023-03-24T14:02:49.817Z,14.10
2023-03-24T14:05:58.730Z,14.20
2023-03-24T14:08:45.899Z,14.20
2023-03-24T14:11:43.270Z,14.10
2023-03-24T14:14:19.831Z,14.00
2023-03-24T14:16:53.894Z,13.80
2023-03-24T14:19:27.500Z,13.50
2023-03-24T14:22:05.339Z,13.10
2023-03-24T14:24:34.029Z,12.90
2023-03-24T14:27:02.251Z,13.10
2023-03-24T14:29:43.201Z,13.30
2023-03-24T14:32:20.713Z,13.30
2023-03-24T14:34:55.810Z,13.30
2023-03-24T14:37:24.971Z,13.20
2023-03-24T14:39:57.284Z,13.50
2023-03-24T14:42:50.887Z,13.60
2023-03-24T14:45:58.876Z,14.00
2023-03-24T14:48:34.952Z,14.20
2023-03-24T14:51:13.811Z,14.20
2023-03-24T14:53:42.530Z,14.20
2023-03-24T14:56:15.393Z,14.20
2023-03-24T14:58:44.861Z,14.30
2023-03-24T15:01:13.553Z,14.40
2023-03-24T15:03:53.323Z,14.50
2023-03-24T15:06:23.684Z,14.50
2023-03-24T15:08:53.251Z,14.50
2023-03-24T15:11:26.187Z,14.70
2023-03-24T15:13:55.586Z,14.80
2023-03-24T15:16:25.645Z,14.70
2023-03-24T15:19:01.913Z,14.80
2023-03-24T15:21:34.386Z,14.80
2023-03-24T15:24:03.536Z,14.90
2023-03-24T15:26:33.088Z,14.90
2023-03-24T15:29:03.924Z,14.90
2023-03-24T15:31:33.002Z,14.90
2023-03-24T15:34:07.591Z,14.80
2023-03-24T15:36:46.439Z,14.80
2023-03-24T15:39:19.826Z,14.80
2023-03-24T15:41:52.281Z,14.90
2023-03-24T15:44:22.347Z,15.00
2023-03-24T15:46:51.194Z,14.80
2023-03-24T15:49:25.447Z,14.80
2023-03-24T15:51:58.754Z,15.00
2023-03-24T15:54:32.076Z,15.00
2023-03-24T15:57:14.489Z,15.00
2023-03-24T15:59:46.967Z,15.00
2023-03-24T16:02:34.359Z,14.90
2023-03-24T16:05:11.235Z,14.70
2023-03-24T16:07:42.661Z,14.60
2023-03-24T16:10:39.923Z,14.60
2023-03-24T16:13:15.776Z,14.60
2023-03-24T16:15:46.216Z,14.50
2023-03-24T16:18:18.381Z,14.60
2023-03-24T16:20:51.800Z,14.40
2023-03-24T16:23:20.279Z,14.30
2023-03-24T16:25:48.776Z,14.30
2023-03-24T16:28:20.695Z,14.30
2023-03-24T16:30:58.050Z,14.10
2023-03-24T16:33:27.240Z,14.10
2023-03-24T16:35:57.138Z,14.10
2023-03-24T16:38:25.443Z,13.90
2023-03-24T16:40:55.382Z,13.80
2023-03-24T16:43:24.000Z,13.90
2023-03-24T16:45:52.571Z,13.90
2023-03-24T16:48:20.904Z,14.00
2023-03-24T16:50:53.272Z,13.90
2023-03-24T16:53:22.980Z,13.90
2023-03-24T16:55:51.553Z,13.70
2023-03-24T16:58:20.131Z,13.60
2023-03-24T17:00:49.991Z,13.40
2023-03-24T17:03:18.987Z,13.40
2023-03-24T17:05:51.063Z,13.30
2023-03-24T17:08:20.113Z,13.40
2023-03-24T17:10:52.991Z,13.40
2023-03-24T17:13:22.625Z,13.40
2023-03-24T17:15:51.351Z,13.40
2023-03-24T17:18:20.595Z,13.30
2023-03-24T17:20:48.969Z,13.30
2023-03-24T17:23:18.975Z,13.20
2023-03-24T17:25:48.974Z,13.10
2023-03-24T17:28:18.635Z,13.10
2023-03-24T17:30:47.241Z,12.90
2023-03-24T17:33:16.371Z,13.00
2023-03-24T17:35:46.523Z,13.00
2023-03-24T17:38:16.567Z,13.00
2023-03-24T17:40:46.544Z,12.90
2023-03-24T17:43:16.403Z,12.90
2023-03-24T17:45:44.712Z,12.60
2023-03-24T17:48:13.128Z,12.50
2023-03-24T17:50:43.639Z,12.60
2023-03-24T17:53:15.904Z,12.30
2023-03-24T17:55:44.107Z,12.00
2023-03-24T17:58:12.391Z,12.20
2023-03-24T18:00:42.105Z,12.20
2023-03-24T18:03:11.162Z,12.10
2023-03-24T18:05:40.004Z,12.20
2023-03-24T18:08:08.343Z,12.30
2023-03-24T18:10:39.542Z,12.30
2023-03-24T18:13:08.544Z,12.40
2023-03-24T18:15:37.076Z,12.50
2023-03-24T18:18:06.849Z,12.50
2023-03-24T18:20:36.352Z,12.20
2023-03-24T18:23:04.749Z,12.20
2023-03-24T18:25:33.671Z,12.00
2023-03-24T18:28:01.849Z,12.10
2023-03-24T18:30:30.842Z,12.10
2023-03-24T18:33:01.284Z,12.00
2023-03-24T18:35:31.007Z,12.10
2023-03-24T18:37:59.269Z,11.80
2023-03-24T18:40:27.677Z,11.90
2023-03-24T18:42:55.828Z,11.80
2023-03-24T18:45:24.043Z,11.70
2023-03-24T18:47:52.258Z,11.70
2023-03-24T18:50:20.525Z,11.80
2023-03-24T18:52:50.316Z,11.70
2023-03-24T18:55:21.877Z,11.70
2023-03-24T18:57:50.630Z,11.70
2023-03-24T19:00:20.225Z,11.60
2023-03-24T19:02:48.522Z,11.50
2023-03-24T19:05:17.107Z,11.70
2023-03-24T19:07:48.429Z,11.60
2023-03-24T19:10:18.276Z,11.40
2023-03-24T19:12:46.519Z,11.50
2023-03-24T19:15:14.801Z,11.40
2023-03-24T19:17:43.001Z,11.50
2023-03-24T19:20:12.133Z,11.50
2023-03-24T19:22:41.605Z,11.50
2023-03-24T19:25:09.959Z,11.40
2023-03-24T19:27:39.543Z,11.40
2023-03-24T19:30:11.241Z,11.30
2023-03-24T19:32:39.718Z,11.40
2023-03-24T19:35:11.001Z,11.40
2023-03-24T19:37:39.285Z,11.70
2023-03-24T19:40:11.595Z,11.60
2023-03-24T19:42:41.887Z,11.50
2023-03-24T19:45:11.540Z,11.40
2023-03-24T19:47:43.324Z,11.50
2023-03-24T19:50:13.063Z,11.40
2023-03-24T19:52:43.024Z,11.30
2023-03-24T19:55:12.233Z,11.20
2023-03-24T19:57:42.028Z,11.10
2023-03-24T20:00:13.900Z,11.00
2023-03-24T20:02:43.014Z,11.10
2023-03-24T20:05:11.700Z,11.20
2023-03-24T20:07:40.111Z,11.30
2023-03-24T20:10:09.762Z,11.30
2023-03-24T20:12:37.951Z,11.20
2023-03-24T20:15:08.831Z,11.20
2023-03-24T20:17:39.416Z,11.20
2023-03-24T20:20:10.300Z,11.10
2023-03-24T20:22:42.037Z,11.10
2023-03-24T20:25:11.481Z,11.10
2023-03-24T20:27:39.893Z,11.10
2023-03-24T20:30:10.525Z,11.00
2023-03-24T20:32:38.896Z,10.90
2023-03-24T20:35:07.753Z,11.00
2023-03-24T20:37:36.449Z,11.00
2023-03-24T20:40:05.861Z,10.90
2023-03-24T20:42:34.945Z,10.80
2023-03-24T20:45:06.720Z,10.70
2023-03-24T20:47:39.034Z,10.60
2023-03-24T20:50:08.623Z,10.60
2023-03-24T20:52:38.939Z,10.60
2023-03-24T20:55:08.764Z,10.70
2023-03-24T20:57:37.368Z,10.70
2023-03-24T21:00:13.443Z,10.80
2023-03-24T21:02:44.042Z,10.80
2023-03-24T21:05:12.461Z,10.80
2023-03-24T21:07:43.682Z,10.80
2023-03-24T21:10:12.681Z,10.80
2023-03-24T21:12:52.787Z,10.80
2023-03-24T21:15:24.910Z,10.70
2023-03-24T21:17:55.334Z,10.50
2023-03-24T21:20:26.852Z,10.40
2023-03-24T21:22:55.739Z,10.40
2023-03-24T21:25:25.654Z,10.40
2023-03-24T21:27:54.393Z,10.40
2023-03-24T21:30:23.885Z,10.30
2023-03-24T21:32:55.937Z,10.30
2023-03-24T21:35:24.963Z,10.40
2023-03-24T21:37:53.945Z,10.30
2023-03-24T21:40:24.167Z,10.40
2023-03-24T21:42:53.676Z,10.50
2023-03-24T21:45:24.159Z,10.50
2023-03-24T21:47:55.376Z,10.40
2023-03-24T21:50:24.095Z,10.50
2023-03-24T21:52:53.784Z,10.50
2023-03-24T21:55:25.294Z,10.40
2023-03-24T21:57:53.878Z,10.30
2023-03-24T22:00:24.255Z,10.30
2023-03-24T22:02:58.346Z,10.20
2023-03-24T22:05:27.786Z,10.10
2023-03-24T22:07:56.179Z,10.10
2023-03-24T22:10:24.428Z,10.00
2023-03-24T22:12:54.274Z,9.90
2023-03-24T22:15:23.996Z,9.90
2023-03-24T22:17:52.324Z,9.80
2023-03-24T22:20:22.336Z,9.80
2023-03-24T22:22:50.863Z,9.80
2023-03-24T22:25:20.136Z,9.80
2023-03-24T22:27:51.342Z,9.80
2023-03-24T22:30:21.153Z,9.80
2023-03-24T22:32:49.687Z,9.70
2023-03-24T22:35:18.152Z,9.60
2023-03-24T22:37:47.934Z,9.60
2023-03-24T22:40:16.091Z,9.60
2023-03-24T22:42:44.288Z,9.60
2023-03-24T22:45:15.877Z,9.60
2023-03-24T22:47:44.440Z,9.50
2023-03-24T22:50:12.976Z,9.50
2023-03-24T22:52:41.349Z,9.40
2023-03-24T22:55:11.972Z,9.30
2023-03-24T22:57:47.761Z,9.30
2023-03-24T23:00:19.305Z,9.20
2023-03-24T23:02:47.654Z,9.30
2023-03-24T23:05:16.425Z,9.30
2023-03-24T23:07:45.043Z,9.30
2023-03-24T23:10:14.943Z,9.30
2023-03-24T23:12:43.930Z,9.30
2023-03-24T23:15:17.721Z,9.40
2023-03-24T23:17:46.560Z,9.30
2023-03-24T23:20:19.551Z,9.30
2023-03-24T23:22:47.897Z,9.30
2023-03-24T23:25:19.149Z,9.30
2023-03-24T23:27:47.941Z,9.30
2023-03-24T23:30:17.294Z,9.30
2023-03-24T23:32:46.717Z,9.30
2023-03-24T23:35:16.942Z,9.30
2023-03-24T23:37:45.112Z,9.30
2023-03-24T23:40:15.973Z,9.20
2023-03-24T23:42:47.614Z,9.20
2023-03-24T23:45:18.481Z,9.10
2023-03-24T23:47:49.916Z,9.10
2023-03-24T23:50:22.007Z,9.10
2023-03-24T23:52:50.307Z,9.10
